createdAt,value
2018-07-11T00:03:03.737Z,19.20
2018-07-11T00:08:06.891Z,19.20
2018-07-11T00:13:10.029Z,19.20
2018-07-11T00:18:13.158Z,19.20
2018-07-11T00:23:16.301Z,19.20
2018-07-11T00:28:19.720Z,19.20
2018-07-11T00:33:22.856Z,19.20
2018-07-11T00:38:25.973Z,19.20
2018-07-11T00:43:30.940Z,19.20
2018-07-11T00:48:34.711Z,19.20
2018-07-11T00:53:37.793Z,19.20
2018-07-11T00:58:46.688Z,19.20
2018-07-11T01:03:50.312Z,19.20
2018-07-11T01:13:56.756Z,19.20
2018-07-11T01:19:02.103Z,19.20
2018-07-11T01:24:05.205Z,19.20
2018-07-11T01:29:08.992Z,19.20
2018-07-11T01:34:12.091Z,19.20
2018-07-11T01:39:15.199Z,19.20
2018-07-11T01:44:18.317Z,19.20
2018-07-11T01:49:21.454Z,19.20
2018-07-11T01:54:24.675Z,19.20
2018-07-11T01:59:30.025Z,19.10
2018-07-11T02:04:34.588Z,19.10
2018-07-11T02:09:37.853Z,19.10
2018-07-11T02:14:40.982Z,19.10
2018-07-11T02:24:47.209Z,19.00
2018-07-11T02:29:50.335Z,19.00
2018-07-11T02:34:53.480Z,19.00
2018-07-11T02:39:56.706Z,19.00
2018-07-11T02:44:59.930Z,18.90
2018-07-11T02:50:03.065Z,18.90
2018-07-11T02:55:06.379Z,18.90
2018-07-11T03:00:09.500Z,18.90
2018-07-11T03:05:12.630Z,18.90
2018-07-11T03:10:15.754Z,18.80
2018-07-11T03:15:18.879Z,18.90
2018-07-11T03:25:24.895Z,18.80
2018-07-11T03:30:28.018Z,18.80
2018-07-11T03:35:31.196Z,18.80
2018-07-11T03:40:34.329Z,18.80
2018-07-11T03:45:37.462Z,18.70
2018-07-11T03:50:40.564Z,18.70
2018-07-11T03:55:43.677Z,18.70
2018-07-11T04:00:46.784Z,18.70
2018-07-11T04:05:50.405Z,18.70
2018-07-11T04:10:53.526Z,18.70
2018-07-11T04:15:56.640Z,18.70
2018-07-11T04:21:01.730Z,18.70
2018-07-11T04:26:04.846Z,18.70
2018-07-11T04:31:07.973Z,18.70
2018-07-11T04:36:11.080Z,18.70
2018-07-11T04:41:14.184Z,18.70
2018-07-11T04:46:17.497Z,18.70
2018-07-11T04:51:20.620Z,18.80
2018-07-11T04:56:23.928Z,18.80
2018-07-11T05:01:27.066Z,18.80
2018-07-11T05:06:30.168Z,18.80
2018-07-11T05:11:33.266Z,18.80
2018-07-11T05:16:36.392Z,18.80
2018-07-11T05:21:39.517Z,18.80
2018-07-11T05:26:42.790Z,18.80
2018-07-11T05:31:45.933Z,18.80
2018-07-11T05:36:49.056Z,18.80
2018-07-11T05:41:52.155Z,18.80
2018-07-11T05:47:00.887Z,18.80
2018-07-11T05:52:04.431Z,18.80
2018-07-11T05:57:07.591Z,18.80
2018-07-11T06:02:10.713Z,18.80
2018-07-11T06:07:13.818Z,18.80
2018-07-11T06:12:16.940Z,18.80
2018-07-11T06:17:20.304Z,18.90
2018-07-11T06:22:23.444Z,18.90
2018-07-11T06:27:26.586Z,18.90
2018-07-11T06:32:29.700Z,19.00
2018-07-11T06:37:32.832Z,19.00
2018-07-11T06:42:36.015Z,19.00
2018-07-11T06:47:39.139Z,19.10
2018-07-11T06:52:42.267Z,19.10
2018-07-11T06:57:45.395Z,19.20
2018-07-11T07:02:48.526Z,19.20
2018-07-11T07:07:52.001Z,19.20
2018-07-11T07:12:55.271Z,19.20
2018-07-11T07:17:58.387Z,19.20
2018-07-11T07:23:01.528Z,19.20
2018-07-11T07:28:04.649Z,19.30
2018-07-11T07:33:07.777Z,19.30
2018-07-11T07:38:10.923Z,19.40
2018-07-11T07:48:16.986Z,19.50
2018-07-11T07:53:20.240Z,19.40
2018-07-11T07:58:23.694Z,19.60
2018-07-11T08:03:27.223Z,19.60
2018-07-11T08:08:30.360Z,19.60
2018-07-11T08:13:33.480Z,19.70
2018-07-11T08:18:36.836Z,19.60
2018-07-11T08:23:51.363Z,19.70
2018-07-11T08:31:37.965Z,19.70
2018-07-11T08:36:52.726Z,19.70
2018-07-11T08:42:36.145Z,19.60
2018-07-11T08:51:58.717Z,19.70
2018-07-11T08:57:12.160Z,19.80
2018-07-11T09:02:32.332Z,19.80
2018-07-11T09:07:46.976Z,19.80
2018-07-11T09:13:05.972Z,19.90
2018-07-11T09:20:29.540Z,20.00
2018-07-11T09:25:32.656Z,20.00
2018-07-11T09:30:35.814Z,20.10
2018-07-11T09:35:38.897Z,20.30
2018-07-11T09:40:42.035Z,20.50
2018-07-11T09:45:45.289Z,20.70
2018-07-11T09:50:48.980Z,20.70
2018-07-11T09:55:52.095Z,20.70
2018-07-11T10:06:03.644Z,21.00
2018-07-11T10:11:06.876Z,20.90
2018-07-11T10:16:10.012Z,20.90
2018-07-11T10:21:13.114Z,20.90
2018-07-11T10:26:16.245Z,20.90
2018-07-11T10:31:19.374Z,20.90
2018-07-11T10:36:22.520Z,20.90
2018-07-11T10:41:25.640Z,21.00
2018-07-11T10:46:28.816Z,21.10
2018-07-11T10:56:34.858Z,21.40
2018-07-11T11:01:38.097Z,21.50
2018-07-11T11:11:44.119Z,21.80
2018-07-11T11:16:47.360Z,22.00
2018-07-11T11:26:53.428Z,22.40
2018-07-11T11:31:56.617Z,22.50
2018-07-11T11:36:59.720Z,22.70
2018-07-11T11:42:02.939Z,23.00
2018-07-11T11:47:05.980Z,23.30
2018-07-11T11:52:09.079Z,23.50
2018-07-11T11:57:12.236Z,23.60
2018-07-11T12:02:15.377Z,23.70
2018-07-11T12:12:21.565Z,24.20
2018-07-11T12:17:24.677Z,24.30
2018-07-11T12:22:27.821Z,24.40
2018-07-11T12:27:30.953Z,24.40
2018-07-11T12:37:36.983Z,24.40
2018-07-11T12:42:40.104Z,24.30
2018-07-11T12:47:48.657Z,24.30
2018-07-11T12:52:51.892Z,24.30
2018-07-11T12:57:55.127Z,24.30
2018-07-11T13:02:58.275Z,24.20
2018-07-11T13:08:01.440Z,24.20
2018-07-11T13:13:04.825Z,24.10
2018-07-11T13:18:07.976Z,24.00
2018-07-11T13:23:11.108Z,23.90
2018-07-11T13:28:14.216Z,23.80
2018-07-11T13:33:18.182Z,23.70
2018-07-11T13:38:21.408Z,23.60
2018-07-11T13:43:24.688Z,23.60
2018-07-11T13:48:27.837Z,23.50
2018-07-11T13:53:31.024Z,23.50
2018-07-11T13:58:34.181Z,23.40
2018-07-11T14:03:37.321Z,23.40
2018-07-11T14:08:40.468Z,23.20
2018-07-11T14:13:43.664Z,23.10
2018-07-11T14:18:46.804Z,23.00
2018-07-11T14:23:49.958Z,22.90
2018-07-11T14:28:53.756Z,22.70
2018-07-11T14:33:59.539Z,22.50
2018-07-11T14:39:03.089Z,22.40
2018-07-11T14:44:06.197Z,22.40
2018-07-11T14:49:09.448Z,22.10
2018-07-11T14:54:12.887Z,22.00
2018-07-11T14:59:16.049Z,21.90
2018-07-11T15:04:19.396Z,21.90
2018-07-11T15:09:22.849Z,21.90
2018-07-11T15:14:25.672Z,21.70
2018-07-11T15:19:28.813Z,21.70
2018-07-11T15:24:32.665Z,21.60
2018-07-11T15:29:35.876Z,21.50
2018-07-11T15:34:39.226Z,21.50
2018-07-11T15:39:42.596Z,21.50
2018-07-11T15:44:45.708Z,21.40
2018-07-11T15:49:50.073Z,21.30
2018-07-11T15:54:56.377Z,21.30
2018-07-11T16:00:08.324Z,21.40
2018-07-11T16:05:15.374Z,21.30
2018-07-11T16:10:22.283Z,21.30
2018-07-11T16:15:25.412Z,21.30
2018-07-11T16:20:28.547Z,21.30
2018-07-11T16:25:31.735Z,21.40
2018-07-11T16:30:35.172Z,21.30
2018-07-11T16:35:38.423Z,21.30
2018-07-11T16:40:41.536Z,21.40
2018-07-11T16:45:44.888Z,21.50
2018-07-11T16:50:48.038Z,21.30
2018-07-11T16:55:51.465Z,21.30
2018-07-11T17:06:04.664Z,21.30
2018-07-11T17:11:18.972Z,21.30
2018-07-11T17:16:31.403Z,21.30
2018-07-11T17:21:40.085Z,21.20
2018-07-11T17:26:45.253Z,21.20
2018-07-11T17:31:49.879Z,21.20
2018-07-11T17:36:57.927Z,21.10
2018-07-11T17:42:01.055Z,21.10
2018-07-11T17:52:08.376Z,21.00
2018-07-11T17:57:20.151Z,21.00
2018-07-11T18:02:30.881Z,21.00
2018-07-11T18:07:40.579Z,21.00
2018-07-11T18:12:55.479Z,21.00
2018-07-11T18:18:09.240Z,21.00
2018-07-11T18:23:23.749Z,20.90
2018-07-11T18:28:35.100Z,20.90
2018-07-11T18:33:48.316Z,20.90
2018-07-11T18:50:43.017Z,20.90
2018-07-11T18:55:57.393Z,20.90
2018-07-11T19:01:06.693Z,20.90
2018-07-11T19:06:22.793Z,20.80
2018-07-11T19:11:29.594Z,20.90
2018-07-11T19:18:53.277Z,20.90
2018-07-11T19:24:07.240Z,20.80
2018-07-11T19:29:16.807Z,20.70
2018-07-11T19:37:06.125Z,20.70
2018-07-11T19:44:27.712Z,20.70
2018-07-11T19:50:16.763Z,20.50
2018-07-11T19:55:31.904Z,20.40
2018-07-11T20:00:35.030Z,20.30
2018-07-11T20:05:38.144Z,20.30
2018-07-11T20:10:41.240Z,20.30
2018-07-11T20:16:47.603Z,20.20
2018-07-11T20:21:50.880Z,20.20
2018-07-11T20:26:53.989Z,20.20
2018-07-11T20:31:57.100Z,20.20
2018-07-11T20:37:00.474Z,20.20
2018-07-11T20:42:03.593Z,20.20
2018-07-11T20:47:06.803Z,20.20
2018-07-11T20:52:09.973Z,20.10
2018-07-11T20:57:13.115Z,20.10
2018-07-11T21:07:36.586Z,20.10
2018-07-11T21:12:48.184Z,20.00
2018-07-11T21:19:02.214Z,19.90
2018-07-11T21:24:06.292Z,19.90
2018-07-11T21:29:09.655Z,19.80
2018-07-11T21:39:15.692Z,19.70
2018-07-11T21:44:18.811Z,19.70
2018-07-11T21:59:29.384Z,19.50
2018-07-11T22:04:32.489Z,19.50
2018-07-11T22:09:35.617Z,19.50
2018-07-11T22:14:38.788Z,19.50
2018-07-11T22:24:43.442Z,19.50
2018-07-11T22:29:45.632Z,19.50
2018-07-11T22:34:47.847Z,19.50
2018-07-11T22:39:50.832Z,19.50
2018-07-11T22:44:53.029Z,19.50
2018-07-11T22:50:02.163Z,19.50
2018-07-11T22:55:04.344Z,19.50
2018-07-11T23:00:06.564Z,19.50
2018-07-11T23:05:08.747Z,19.50
2018-07-11T23:10:10.929Z,19.40
2018-07-11T23:15:13.122Z,19.40
2018-07-11T23:20:15.318Z,19.40
2018-07-11T23:25:17.508Z,19.40
2018-07-11T23:30:19.687Z,19.40
2018-07-11T23:35:21.864Z,19.40
2018-07-11T23:40:24.060Z,19.40
2018-07-11T23:45:26.252Z,19.40
2018-07-11T23:50:28.428Z,19.40
2018-07-11T23:55:30.624Z,19.40
